sensor_id;sensor_type;location;lat;lon;timestamp;P1;durP1;ratioP1;P2;durP2;ratioP2
57029;SDS011;42920;45.306;20.448;2022-08-19T00:01:22;13.88;;;9.43;;
57029;SDS011;42920;45.306;20.448;2022-08-19T00:03:48;14.93;;;9.20;;
57029;SDS011;42920;45.306;20.448;2022-08-19T00:06:14;16.90;;;9.68;;
57029;SDS011;42920;45.306;20.448;2022-08-19T00:08:40;17.98;;;10.57;;
57029;SDS011;42920;45.306;20.448;2022-08-19T00:11:06;17.90;;;9.43;;
57029;SDS011;42920;45.306;20.448;2022-08-19T00:13:32;18.10;;;9.70;;
57029;SDS011;42920;45.306;20.448;2022-08-19T00:15:58;25.88;;;10.77;;
57029;SDS011;42920;45.306;20.448;2022-08-19T00:18:24;24.45;;;11.40;;
57029;SDS011;42920;45.306;20.448;2022-08-19T00:20:50;24.23;;;10.98;;
57029;SDS011;42920;45.306;20.448;2022-08-19T00:23:16;18.50;;;10.43;;
57029;SDS011;42920;45.306;20.448;2022-08-19T00:25:42;24.40;;;10.18;;
57029;SDS011;42920;45.306;20.448;2022-08-19T00:28:08;18.10;;;9.77;;
57029;SDS011;42920;45.306;20.448;2022-08-19T00:30:33;21.38;;;10.35;;
57029;SDS011;42920;45.306;20.448;2022-08-19T00:32:59;22.77;;;11.00;;
57029;SDS011;42920;45.306;20.448;2022-08-19T00:35:25;15.80;;;10.43;;
57029;SDS011;42920;45.306;20.448;2022-08-19T00:37:52;17.42;;;9.75;;
57029;SDS011;42920;45.306;20.448;2022-08-19T00:40:19;19.73;;;10.68;;
57029;SDS011;42920;45.306;20.448;2022-08-19T00:42:45;20.20;;;10.20;;
57029;SDS011;42920;45.306;20.448;2022-08-19T00:45:17;19.05;;;10.95;;
57029;SDS011;42920;45.306;20.448;2022-08-19T00:47:49;16.67;;;10.00;;
57029;SDS011;42920;45.306;20.448;2022-08-19T00:50:16;22.08;;;11.57;;
57029;SDS011;42920;45.306;20.448;2022-08-19T00:52:46;19.02;;;10.25;;
57029;SDS011;42920;45.306;20.448;2022-08-19T00:55:21;21.05;;;11.55;;
57029;SDS011;42920;45.306;20.448;2022-08-19T00:58:09;20.98;;;10.63;;
57029;SDS011;42920;45.306;20.448;2022-08-19T01:00:37;18.50;;;10.85;;
57029;SDS011;42920;45.306;20.448;2022-08-19T01:03:07;16.02;;;9.88;;
57029;SDS011;42920;45.306;20.448;2022-08-19T01:05:35;17.73;;;10.73;;
57029;SDS011;42920;45.306;20.448;2022-08-19T01:08:03;24.00;;;10.95;;
57029;SDS011;42920;45.306;20.448;2022-08-19T01:10:32;15.70;;;11.15;;
57029;SDS011;42920;45.306;20.448;2022-08-19T01:13:02;19.13;;;10.45;;
57029;SDS011;42920;45.306;20.448;2022-08-19T01:15:31;25.20;;;11.35;;
57029;SDS011;42920;45.306;20.448;2022-08-19T01:18:04;17.90;;;10.88;;
57029;SDS011;42920;45.306;20.448;2022-08-19T01:20:31;14.23;;;10.00;;
57029;SDS011;42920;45.306;20.448;2022-08-19T01:22:58;22.98;;;10.77;;
57029;SDS011;42920;45.306;20.448;2022-08-19T01:25:27;27.25;;;11.70;;
57029;SDS011;42920;45.306;20.448;2022-08-19T01:27:59;21.60;;;11.50;;
57029;SDS011;42920;45.306;20.448;2022-08-19T01:30:26;22.52;;;11.75;;
57029;SDS011;42920;45.306;20.448;2022-08-19T01:32:55;17.55;;;11.20;;
57029;SDS011;42920;45.306;20.448;2022-08-19T01:35:23;21.52;;;10.95;;
57029;SDS011;42920;45.306;20.448;2022-08-19T01:38:00;21.58;;;10.60;;
57029;SDS011;42920;45.306;20.448;2022-08-19T01:40:33;28.98;;;11.10;;
57029;SDS011;42920;45.306;20.448;2022-08-19T01:43:00;19.77;;;10.82;;
57029;SDS011;42920;45.306;20.448;2022-08-19T01:45:27;24.90;;;10.93;;
57029;SDS011;42920;45.306;20.448;2022-08-19T01:47:55;17.63;;;11.25;;
57029;SDS011;42920;45.306;20.448;2022-08-19T01:50:21;17.35;;;10.77;;
57029;SDS011;42920;45.306;20.448;2022-08-19T01:52:47;14.00;;;10.02;;
57029;SDS011;42920;45.306;20.448;2022-08-19T01:55:14;20.48;;;9.88;;
57029;SDS011;42920;45.306;20.448;2022-08-19T01:57:43;20.92;;;10.98;;
57029;SDS011;42920;45.306;20.448;2022-08-19T02:00:14;21.67;;;9.93;;
57029;SDS011;42920;45.306;20.448;2022-08-19T02:02:43;13.27;;;10.02;;
57029;SDS011;42920;45.306;20.448;2022-08-19T02:05:10;20.85;;;10.75;;
57029;SDS011;42920;45.306;20.448;2022-08-19T02:07:37;18.65;;;11.00;;
57029;SDS011;42920;45.306;20.448;2022-08-19T02:10:05;19.10;;;10.68;;
57029;SDS011;42920;45.306;20.448;2022-08-19T02:12:33;14.07;;;10.90;;
57029;SDS011;42920;45.306;20.448;2022-08-19T02:14:59;13.88;;;9.95;;
57029;SDS011;42920;45.306;20.448;2022-08-19T02:17:26;20.08;;;10.35;;
57029;SDS011;42920;45.306;20.448;2022-08-19T02:19:53;15.07;;;10.32;;
57029;SDS011;42920;45.306;20.448;2022-08-19T02:22:20;27.92;;;11.98;;
57029;SDS011;42920;45.306;20.448;2022-08-19T02:24:46;21.90;;;10.85;;
57029;SDS011;42920;45.306;20.448;2022-08-19T02:27:13;17.38;;;11.27;;
57029;SDS011;42920;45.306;20.448;2022-08-19T02:29:39;26.02;;;12.63;;
57029;SDS011;42920;45.306;20.448;2022-08-19T02:32:06;23.92;;;11.73;;
57029;SDS011;42920;45.306;20.448;2022-08-19T02:34:32;22.30;;;10.77;;
57029;SDS011;42920;45.306;20.448;2022-08-19T02:36:58;18.35;;;11.70;;
57029;SDS011;42920;45.306;20.448;2022-08-19T02:39:24;21.40;;;11.98;;
57029;SDS011;42920;45.306;20.448;2022-08-19T02:41:51;24.17;;;11.90;;
57029;SDS011;42920;45.306;20.448;2022-08-19T02:44:17;20.05;;;11.13;;
57029;SDS011;42920;45.306;20.448;2022-08-19T02:46:44;23.42;;;11.65;;
57029;SDS011;42920;45.306;20.448;2022-08-19T02:49:11;17.75;;;11.80;;
57029;SDS011;42920;45.306;20.448;2022-08-19T02:51:39;17.30;;;10.63;;
57029;SDS011;42920;45.306;20.448;2022-08-19T02:54:07;21.45;;;11.38;;
57029;SDS011;42920;45.306;20.448;2022-08-19T02:56:34;16.13;;;10.88;;
57029;SDS011;42920;45.306;20.448;2022-08-19T02:59:01;22.80;;;11.35;;
57029;SDS011;42920;45.306;20.448;2022-08-19T03:01:35;19.10;;;10.57;;
57029;SDS011;42920;45.306;20.448;2022-08-19T03:04:05;18.48;;;11.07;;
57029;SDS011;42920;45.306;20.448;2022-08-19T03:06:36;17.90;;;10.40;;
57029;SDS011;42920;45.306;20.448;2022-08-19T03:09:03;22.85;;;10.02;;
57029;SDS011;42920;45.306;20.448;2022-08-19T03:11:30;17.92;;;10.23;;
57029;SDS011;42920;45.306;20.448;2022-08-19T03:14:00;23.67;;;10.35;;
57029;SDS011;42920;45.306;20.448;2022-08-19T03:16:29;16.58;;;10.60;;
57029;SDS011;42920;45.306;20.448;2022-08-19T03:18:56;19.08;;;9.95;;
57029;SDS011;42920;45.306;20.448;2022-08-19T03:21:26;20.27;;;10.07;;
57029;SDS011;42920;45.306;20.448;2022-08-19T03:23:54;19.70;;;10.45;;
57029;SDS011;42920;45.306;20.448;2022-08-19T03:26:21;23.55;;;9.80;;
57029;SDS011;42920;45.306;20.448;2022-08-19T03:28:47;22.90;;;10.63;;
57029;SDS011;42920;45.306;20.448;2022-08-19T03:31:15;19.65;;;9.23;;
57029;SDS011;42920;45.306;20.448;2022-08-19T03:33:42;17.70;;;9.60;;
57029;SDS011;42920;45.306;20.448;2022-08-19T03:36:10;19.50;;;10.25;;
57029;SDS011;42920;45.306;20.448;2022-08-19T03:38:37;28.15;;;10.05;;
57029;SDS011;42920;45.306;20.448;2022-08-19T03:41:11;17.30;;;9.82;;
57029;SDS011;42920;45.306;20.448;2022-08-19T03:43:39;16.98;;;8.70;;
57029;SDS011;42920;45.306;20.448;2022-08-19T03:46:10;14.43;;;9.45;;
57029;SDS011;42920;45.306;20.448;2022-08-19T03:48:39;18.35;;;10.18;;
57029;SDS011;42920;45.306;20.448;2022-08-19T03:51:07;14.95;;;9.48;;
57029;SDS011;42920;45.306;20.448;2022-08-19T03:53:34;18.83;;;9.05;;
57029;SDS011;42920;45.306;20.448;2022-08-19T03:56:00;22.80;;;9.75;;
57029;SDS011;42920;45.306;20.448;2022-08-19T03:58:28;17.02;;;8.65;;
57029;SDS011;42920;45.306;20.448;2022-08-19T04:00:57;14.82;;;8.48;;
57029;SDS011;42920;45.306;20.448;2022-08-19T04:03:23;12.82;;;8.25;;
57029;SDS011;42920;45.306;20.448;2022-08-19T04:05:51;24.38;;;9.70;;
57029;SDS011;42920;45.306;20.448;2022-08-19T04:08:18;20.00;;;8.30;;
57029;SDS011;42920;45.306;20.448;2022-08-19T04:10:46;21.67;;;9.15;;
57029;SDS011;42920;45.306;20.448;2022-08-19T04:13:14;20.75;;;9.45;;
57029;SDS011;42920;45.306;20.448;2022-08-19T04:15:41;14.77;;;9.20;;
57029;SDS011;42920;45.306;20.448;2022-08-19T04:18:08;13.30;;;9.20;;
57029;SDS011;42920;45.306;20.448;2022-08-19T04:20:38;18.65;;;9.38;;
57029;SDS011;42920;45.306;20.448;2022-08-19T04:23:08;14.18;;;10.60;;
57029;SDS011;42920;45.306;20.448;2022-08-19T04:25:36;14.32;;;8.68;;
57029;SDS011;42920;45.306;20.448;2022-08-19T04:28:06;17.67;;;10.23;;
57029;SDS011;42920;45.306;20.448;2022-08-19T04:30:42;15.50;;;9.80;;
57029;SDS011;42920;45.306;20.448;2022-08-19T04:33:10;18.60;;;10.37;;
57029;SDS011;42920;45.306;20.448;2022-08-19T04:35:45;14.70;;;9.38;;
57029;SDS011;42920;45.306;20.448;2022-08-19T04:38:13;18.60;;;10.25;;
57029;SDS011;42920;45.306;20.448;2022-08-19T04:40:42;19.52;;;9.50;;
57029;SDS011;42920;45.306;20.448;2022-08-19T04:43:34;19.42;;;9.40;;
57029;SDS011;42920;45.306;20.448;2022-08-19T04:46:04;15.02;;;9.65;;
57029;SDS011;42920;45.306;20.448;2022-08-19T04:48:35;16.77;;;9.25;;
57029;SDS011;42920;45.306;20.448;2022-08-19T04:51:05;14.05;;;9.50;;
57029;SDS011;42920;45.306;20.448;2022-08-19T04:53:34;18.60;;;9.85;;
57029;SDS011;42920;45.306;20.448;2022-08-19T04:56:06;16.38;;;9.73;;
57029;SDS011;42920;45.306;20.448;2022-08-19T04:58:34;17.63;;;9.75;;
57029;SDS011;42920;45.306;20.448;2022-08-19T05:01:01;15.93;;;9.55;;
57029;SDS011;42920;45.306;20.448;2022-08-19T05:03:27;19.35;;;9.40;;
57029;SDS011;42920;45.306;20.448;2022-08-19T05:06:09;13.15;;;9.35;;
57029;SDS011;42920;45.306;20.448;2022-08-19T05:08:38;19.88;;;9.90;;
57029;SDS011;42920;45.306;20.448;2022-08-19T05:11:12;19.83;;;9.57;;
57029;SDS011;42920;45.306;20.448;2022-08-19T05:13:45;25.15;;;14.68;;
57029;SDS011;42920;45.306;20.448;2022-08-19T05:16:13;28.15;;;17.98;;
57029;SDS011;42920;45.306;20.448;2022-08-19T05:18:41;29.92;;;17.02;;
57029;SDS011;42920;45.306;20.448;2022-08-19T05:21:26;13.93;;;8.23;;
57029;SDS011;42920;45.306;20.448;2022-08-19T05:24:10;14.85;;;8.23;;
57029;SDS011;42920;45.306;20.448;2022-08-19T05:26:38;18.42;;;11.23;;
57029;SDS011;42920;45.306;20.448;2022-08-19T05:29:06;15.43;;;8.77;;
57029;SDS011;42920;45.306;20.448;2022-08-19T05:31:33;20.02;;;8.52;;
57029;SDS011;42920;45.306;20.448;2022-08-19T05:34:01;12.18;;;5.47;;
57029;SDS011;42920;45.306;20.448;2022-08-19T05:36:28;15.05;;;6.10;;
57029;SDS011;42920;45.306;20.448;2022-08-19T05:38:59;11.27;;;7.47;;
57029;SDS011;42920;45.306;20.448;2022-08-19T05:41:25;21.92;;;8.68;;
57029;SDS011;42920;45.306;20.448;2022-08-19T05:43:58;20.02;;;11.57;;
57029;SDS011;42920;45.306;20.448;2022-08-19T05:46:26;15.63;;;9.60;;
57029;SDS011;42920;45.306;20.448;2022-08-19T05:48:52;15.35;;;9.48;;
57029;SDS011;42920;45.306;20.448;2022-08-19T05:51:21;12.35;;;8.65;;
57029;SDS011;42920;45.306;20.448;2022-08-19T05:53:47;12.68;;;7.95;;
57029;SDS011;42920;45.306;20.448;2022-08-19T05:56:14;13.35;;;7.57;;
57029;SDS011;42920;45.306;20.448;2022-08-19T05:58:41;45.47;;;9.75;;
57029;SDS011;42920;45.306;20.448;2022-08-19T06:01:10;23.85;;;7.60;;
57029;SDS011;42920;45.306;20.448;2022-08-19T06:03:39;15.43;;;8.05;;
57029;SDS011;42920;45.306;20.448;2022-08-19T06:06:05;13.40;;;7.10;;
57029;SDS011;42920;45.306;20.448;2022-08-19T06:08:33;15.38;;;8.02;;
57029;SDS011;42920;45.306;20.448;2022-08-19T06:13:51;13.63;;;8.45;;
57029;SDS011;42920;45.306;20.448;2022-08-19T06:16:19;13.95;;;7.32;;
57029;SDS011;42920;45.306;20.448;2022-08-19T06:18:51;11.00;;;7.00;;
57029;SDS011;42920;45.306;20.448;2022-08-19T06:21:21;15.40;;;7.53;;
57029;SDS011;42920;45.306;20.448;2022-08-19T06:23:49;9.57;;;6.00;;
57029;SDS011;42920;45.306;20.448;2022-08-19T06:26:16;12.65;;;6.03;;
57029;SDS011;42920;45.306;20.448;2022-08-19T06:28:43;14.93;;;5.90;;
57029;SDS011;42920;45.306;20.448;2022-08-19T06:31:14;12.02;;;5.75;;
57029;SDS011;42920;45.306;20.448;2022-08-19T06:33:45;13.55;;;6.28;;
57029;SDS011;42920;45.306;20.448;2022-08-19T06:36:18;9.02;;;5.65;;
57029;SDS011;42920;45.306;20.448;2022-08-19T06:38:46;10.25;;;5.78;;
57029;SDS011;42920;45.306;20.448;2022-08-19T06:41:12;10.00;;;5.25;;
57029;SDS011;42920;45.306;20.448;2022-08-19T06:43:38;13.13;;;5.95;;
57029;SDS011;42920;45.306;20.448;2022-08-19T06:46:09;15.77;;;5.95;;
57029;SDS011;42920;45.306;20.448;2022-08-19T06:48:36;8.88;;;5.75;;
57029;SDS011;42920;45.306;20.448;2022-08-19T06:51:02;11.80;;;5.60;;
57029;SDS011;42920;45.306;20.448;2022-08-19T06:53:30;9.68;;;5.18;;
57029;SDS011;42920;45.306;20.448;2022-08-19T06:55:57;9.88;;;6.05;;
57029;SDS011;42920;45.306;20.448;2022-08-19T06:58:27;11.15;;;5.82;;
57029;SDS011;42920;45.306;20.448;2022-08-19T07:00:57;11.68;;;6.05;;
57029;SDS011;42920;45.306;20.448;2022-08-19T07:03:25;8.73;;;5.50;;
57029;SDS011;42920;45.306;20.448;2022-08-19T07:05:53;12.88;;;5.15;;
57029;SDS011;42920;45.306;20.448;2022-08-19T07:08:19;10.68;;;4.82;;
57029;SDS011;42920;45.306;20.448;2022-08-19T07:10:45;8.57;;;5.10;;
57029;SDS011;42920;45.306;20.448;2022-08-19T07:13:11;7.93;;;4.82;;
57029;SDS011;42920;45.306;20.448;2022-08-19T07:15:37;11.07;;;5.00;;
57029;SDS011;42920;45.306;20.448;2022-08-19T07:18:03;9.23;;;5.32;;
57029;SDS011;42920;45.306;20.448;2022-08-19T07:20:28;17.98;;;5.78;;
57029;SDS011;42920;45.306;20.448;2022-08-19T07:22:54;8.52;;;4.85;;
57029;SDS011;42920;45.306;20.448;2022-08-19T07:25:20;8.70;;;5.60;;
57029;SDS011;42920;45.306;20.448;2022-08-19T07:27:48;8.25;;;5.10;;
57029;SDS011;42920;45.306;20.448;2022-08-19T07:30:16;8.07;;;5.05;;
57029;SDS011;42920;45.306;20.448;2022-08-19T07:32:42;13.65;;;5.60;;
57029;SDS011;42920;45.306;20.448;2022-08-19T07:35:08;14.82;;;5.68;;
57029;SDS011;42920;45.306;20.448;2022-08-19T07:37:34;18.58;;;5.60;;
57029;SDS011;42920;45.306;20.448;2022-08-19T07:40:03;13.25;;;5.40;;
57029;SDS011;42920;45.306;20.448;2022-08-19T07:42:30;7.28;;;5.32;;
57029;SDS011;42920;45.306;20.448;2022-08-19T07:44:57;10.23;;;5.47;;
57029;SDS011;42920;45.306;20.448;2022-08-19T07:47:23;11.35;;;5.32;;
57029;SDS011;42920;45.306;20.448;2022-08-19T07:49:49;11.38;;;5.80;;
57029;SDS011;42920;45.306;20.448;2022-08-19T07:52:14;14.73;;;6.13;;
57029;SDS011;42920;45.306;20.448;2022-08-19T07:54:41;15.10;;;4.75;;
57029;SDS011;42920;45.306;20.448;2022-08-19T07:57:07;9.85;;;5.50;;
57029;SDS011;42920;45.306;20.448;2022-08-19T07:59:34;7.65;;;5.32;;
57029;SDS011;42920;45.306;20.448;2022-08-19T08:02:01;8.98;;;5.15;;
57029;SDS011;42920;45.306;20.448;2022-08-19T08:04:28;11.30;;;5.07;;
57029;SDS011;42920;45.306;20.448;2022-08-19T08:09:58;9.90;;;5.10;;
57029;SDS011;42920;45.306;20.448;2022-08-19T08:12:27;7.60;;;4.47;;
57029;SDS011;42920;45.306;20.448;2022-08-19T08:14:57;9.05;;;4.85;;
57029;SDS011;42920;45.306;20.448;2022-08-19T08:17:27;11.57;;;5.05;;
57029;SDS011;42920;45.306;20.448;2022-08-19T08:19:55;11.20;;;5.32;;
57029;SDS011;42920;45.306;20.448;2022-08-19T08:22:22;11.65;;;5.63;;
57029;SDS011;42920;45.306;20.448;2022-08-19T08:25:15;13.88;;;4.97;;
57029;SDS011;42920;45.306;20.448;2022-08-19T08:27:44;12.57;;;5.35;;
57029;SDS011;42920;45.306;20.448;2022-08-19T08:30:12;10.30;;;5.32;;
57029;SDS011;42920;45.306;20.448;2022-08-19T08:32:40;9.85;;;5.07;;
57029;SDS011;42920;45.306;20.448;2022-08-19T08:35:07;12.18;;;4.88;;
57029;SDS011;42920;45.306;20.448;2022-08-19T08:37:35;13.10;;;5.25;;
57029;SDS011;42920;45.306;20.448;2022-08-19T08:40:03;12.90;;;5.53;;
57029;SDS011;42920;45.306;20.448;2022-08-19T08:42:35;15.30;;;5.32;;
57029;SDS011;42920;45.306;20.448;2022-08-19T08:45:12;11.88;;;4.93;;
57029;SDS011;42920;45.306;20.448;2022-08-19T08:47:41;12.55;;;5.43;;
57029;SDS011;42920;45.306;20.448;2022-08-19T08:50:16;13.07;;;5.85;;
57029;SDS011;42920;45.306;20.448;2022-08-19T08:52:47;18.80;;;6.28;;
57029;SDS011;42920;45.306;20.448;2022-08-19T08:55:19;12.23;;;5.22;;
57029;SDS011;42920;45.306;20.448;2022-08-19T09:00:25;9.20;;;5.03;;
57029;SDS011;42920;45.306;20.448;2022-08-19T09:02:54;17.40;;;5.55;;
57029;SDS011;42920;45.306;20.448;2022-08-19T09:05:21;12.25;;;5.05;;
57029;SDS011;42920;45.306;20.448;2022-08-19T09:10:46;9.68;;;5.45;;
57029;SDS011;42920;45.306;20.448;2022-08-19T09:13:31;7.55;;;5.20;;
57029;SDS011;42920;45.306;20.448;2022-08-19T09:16:19;14.77;;;5.65;;
57029;SDS011;42920;45.306;20.448;2022-08-19T09:18:47;8.77;;;4.95;;
57029;SDS011;42920;45.306;20.448;2022-08-19T09:21:18;11.95;;;5.50;;
57029;SDS011;42920;45.306;20.448;2022-08-19T09:23:45;6.72;;;5.25;;
57029;SDS011;42920;45.306;20.448;2022-08-19T09:26:13;12.10;;;5.57;;
57029;SDS011;42920;45.306;20.448;2022-08-19T09:28:41;6.88;;;4.75;;
57029;SDS011;42920;45.306;20.448;2022-08-19T09:31:18;11.30;;;5.28;;
57029;SDS011;42920;45.306;20.448;2022-08-19T09:33:47;7.70;;;5.38;;
57029;SDS011;42920;45.306;20.448;2022-08-19T09:36:14;8.75;;;4.60;;
57029;SDS011;42920;45.306;20.448;2022-08-19T09:38:42;11.25;;;4.85;;
57029;SDS011;42920;45.306;20.448;2022-08-19T09:41:12;8.48;;;4.97;;
57029;SDS011;42920;45.306;20.448;2022-08-19T09:43:40;11.90;;;4.35;;
57029;SDS011;42920;45.306;20.448;2022-08-19T09:46:09;9.05;;;4.47;;
57029;SDS011;42920;45.306;20.448;2022-08-19T09:48:38;12.57;;;5.75;;
57029;SDS011;42920;45.306;20.448;2022-08-19T09:51:06;11.55;;;5.18;;
57029;SDS011;42920;45.306;20.448;2022-08-19T09:53:40;11.93;;;4.35;;
57029;SDS011;42920;45.306;20.448;2022-08-19T09:56:08;8.02;;;4.82;;
57029;SDS011;42920;45.306;20.448;2022-08-19T09:58:34;6.72;;;4.22;;
57029;SDS011;42920;45.306;20.448;2022-08-19T10:01:01;11.55;;;4.60;;
57029;SDS011;42920;45.306;20.448;2022-08-19T10:03:29;12.90;;;5.20;;
57029;SDS011;42920;45.306;20.448;2022-08-19T10:05:57;10.05;;;4.53;;
57029;SDS011;42920;45.306;20.448;2022-08-19T10:08:29;9.02;;;5.07;;
57029;SDS011;42920;45.306;20.448;2022-08-19T10:10:59;11.20;;;4.25;;
57029;SDS011;42920;45.306;20.448;2022-08-19T10:13:27;8.45;;;4.50;;
57029;SDS011;42920;45.306;20.448;2022-08-19T10:15:55;11.13;;;4.85;;
57029;SDS011;42920;45.306;20.448;2022-08-19T10:18:23;10.57;;;4.45;;
57029;SDS011;42920;45.306;20.448;2022-08-19T10:20:50;12.55;;;4.65;;
57029;SDS011;42920;45.306;20.448;2022-08-19T10:23:18;9.38;;;4.15;;
57029;SDS011;42920;45.306;20.448;2022-08-19T10:25:45;8.98;;;4.47;;
57029;SDS011;42920;45.306;20.448;2022-08-19T10:28:10;8.45;;;4.28;;
57029;SDS011;42920;45.306;20.448;2022-08-19T10:30:39;9.15;;;4.63;;
57029;SDS011;42920;45.306;20.448;2022-08-19T10:33:05;10.77;;;4.45;;
57029;SDS011;42920;45.306;20.448;2022-08-19T10:35:32;10.85;;;5.05;;
57029;SDS011;42920;45.306;20.448;2022-08-19T10:37:58;8.52;;;4.70;;
57029;SDS011;42920;45.306;20.448;2022-08-19T10:40:26;10.82;;;5.22;;
57029;SDS011;42920;45.306;20.448;2022-08-19T10:42:53;10.40;;;4.75;;
57029;SDS011;42920;45.306;20.448;2022-08-19T10:45:20;9.02;;;4.60;;
57029;SDS011;42920;45.306;20.448;2022-08-19T10:47:48;10.18;;;4.80;;
57029;SDS011;42920;45.306;20.448;2022-08-19T10:50:14;12.05;;;5.00;;
57029;SDS011;42920;45.306;20.448;2022-08-19T10:53:02;13.37;;;4.93;;
57029;SDS011;42920;45.306;20.448;2022-08-19T10:55:30;6.63;;;4.40;;
57029;SDS011;42920;45.306;20.448;2022-08-19T10:58:15;11.93;;;4.77;;
57029;SDS011;42920;45.306;20.448;2022-08-19T11:00:42;13.25;;;4.60;;
57029;SDS011;42920;45.306;20.448;2022-08-19T11:03:15;12.52;;;4.85;;
57029;SDS011;42920;45.306;20.448;2022-08-19T11:05:41;9.77;;;4.72;;
57029;SDS011;42920;45.306;20.448;2022-08-19T11:08:07;12.68;;;5.63;;
57029;SDS011;42920;45.306;20.448;2022-08-19T11:10:37;7.40;;;4.45;;
57029;SDS011;42920;45.306;20.448;2022-08-19T11:13:07;11.32;;;5.47;;
57029;SDS011;42920;45.306;20.448;2022-08-19T11:15:32;18.90;;;6.30;;
57029;SDS011;42920;45.306;20.448;2022-08-19T11:17:58;12.85;;;5.07;;
57029;SDS011;42920;45.306;20.448;2022-08-19T11:20:24;11.57;;;4.78;;
57029;SDS011;42920;45.306;20.448;2022-08-19T11:22:51;11.35;;;4.45;;
57029;SDS011;42920;45.306;20.448;2022-08-19T11:25:18;9.35;;;4.78;;
57029;SDS011;42920;45.306;20.448;2022-08-19T11:27:43;12.02;;;5.57;;
57029;SDS011;42920;45.306;20.448;2022-08-19T11:30:11;14.35;;;4.55;;
57029;SDS011;42920;45.306;20.448;2022-08-19T11:32:38;14.65;;;5.68;;
57029;SDS011;42920;45.306;20.448;2022-08-19T11:35:05;7.78;;;4.93;;
57029;SDS011;42920;45.306;20.448;2022-08-19T11:37:31;9.80;;;4.97;;
57029;SDS011;42920;45.306;20.448;2022-08-19T11:40:03;12.80;;;5.22;;
57029;SDS011;42920;45.306;20.448;2022-08-19T11:42:30;12.70;;;4.43;;
57029;SDS011;42920;45.306;20.448;2022-08-19T11:45:14;12.93;;;4.60;;
57029;SDS011;42920;45.306;20.448;2022-08-19T11:47:40;8.90;;;5.07;;
57029;SDS011;42920;45.306;20.448;2022-08-19T11:50:06;10.25;;;4.60;;
57029;SDS011;42920;45.306;20.448;2022-08-19T11:52:32;9.05;;;4.95;;
57029;SDS011;42920;45.306;20.448;2022-08-19T11:54:58;10.88;;;5.20;;
57029;SDS011;42920;45.306;20.448;2022-08-19T11:57:23;8.82;;;5.03;;
57029;SDS011;42920;45.306;20.448;2022-08-19T11:59:50;15.05;;;4.68;;
57029;SDS011;42920;45.306;20.448;2022-08-19T12:02:17;10.52;;;4.78;;
57029;SDS011;42920;45.306;20.448;2022-08-19T12:04:44;7.22;;;4.95;;
57029;SDS011;42920;45.306;20.448;2022-08-19T12:07:09;11.52;;;5.50;;
57029;SDS011;42920;45.306;20.448;2022-08-19T12:09:35;13.40;;;4.75;;
57029;SDS011;42920;45.306;20.448;2022-08-19T12:12:01;11.25;;;5.53;;
57029;SDS011;42920;45.306;20.448;2022-08-19T12:14:27;8.38;;;5.03;;
57029;SDS011;42920;45.306;20.448;2022-08-19T12:16:55;8.63;;;4.80;;
57029;SDS011;42920;45.306;20.448;2022-08-19T12:19:21;16.40;;;5.90;;
57029;SDS011;42920;45.306;20.448;2022-08-19T12:21:47;13.75;;;5.68;;
57029;SDS011;42920;45.306;20.448;2022-08-19T12:24:14;14.63;;;5.35;;
57029;SDS011;42920;45.306;20.448;2022-08-19T12:26:40;10.02;;;5.15;;
57029;SDS011;42920;45.306;20.448;2022-08-19T12:29:06;9.32;;;5.10;;
57029;SDS011;42920;45.306;20.448;2022-08-19T12:31:33;9.98;;;4.75;;
57029;SDS011;42920;45.306;20.448;2022-08-19T12:33:59;7.78;;;4.97;;
57029;SDS011;42920;45.306;20.448;2022-08-19T12:36:27;8.88;;;4.93;;
57029;SDS011;42920;45.306;20.448;2022-08-19T12:38:53;11.45;;;5.43;;
57029;SDS011;42920;45.306;20.448;2022-08-19T12:41:19;10.05;;;5.10;;
57029;SDS011;42920;45.306;20.448;2022-08-19T12:43:47;8.27;;;4.97;;
57029;SDS011;42920;45.306;20.448;2022-08-19T12:46:14;12.60;;;5.10;;
57029;SDS011;42920;45.306;20.448;2022-08-19T12:48:40;11.95;;;5.50;;
57029;SDS011;42920;45.306;20.448;2022-08-19T12:51:07;11.77;;;5.20;;
57029;SDS011;42920;45.306;20.448;2022-08-19T12:53:35;27.88;;;5.95;;
57029;SDS011;42920;45.306;20.448;2022-08-19T12:56:01;8.60;;;5.35;;
57029;SDS011;42920;45.306;20.448;2022-08-19T12:58:30;8.73;;;5.43;;
57029;SDS011;42920;45.306;20.448;2022-08-19T13:00:59;14.95;;;5.43;;
57029;SDS011;42920;45.306;20.448;2022-08-19T13:03:30;8.93;;;5.82;;
57029;SDS011;42920;45.306;20.448;2022-08-19T13:05:56;10.50;;;5.00;;
57029;SDS011;42920;45.306;20.448;2022-08-19T13:08:22;9.23;;;4.43;;
57029;SDS011;42920;45.306;20.448;2022-08-19T13:10:48;9.95;;;4.85;;
57029;SDS011;42920;45.306;20.448;2022-08-19T13:13:14;8.70;;;4.32;;
57029;SDS011;42920;45.306;20.448;2022-08-19T13:15:40;21.60;;;5.97;;
57029;SDS011;42920;45.306;20.448;2022-08-19T13:18:07;12.32;;;4.80;;
57029;SDS011;42920;45.306;20.448;2022-08-19T13:20:36;10.95;;;4.85;;
57029;SDS011;42920;45.306;20.448;2022-08-19T13:23:05;8.38;;;4.50;;
57029;SDS011;42920;45.306;20.448;2022-08-19T13:25:32;12.65;;;5.57;;
57029;SDS011;42920;45.306;20.448;2022-08-19T13:27:59;11.30;;;4.95;;
57029;SDS011;42920;45.306;20.448;2022-08-19T13:30:25;32.03;;;7.20;;
57029;SDS011;42920;45.306;20.448;2022-08-19T13:33:10;11.65;;;5.25;;
57029;SDS011;42920;45.306;20.448;2022-08-19T13:35:41;16.67;;;5.43;;
57029;SDS011;42920;45.306;20.448;2022-08-19T13:38:09;19.38;;;5.05;;
57029;SDS011;42920;45.306;20.448;2022-08-19T13:40:36;9.95;;;4.75;;
57029;SDS011;42920;45.306;20.448;2022-08-19T13:43:03;12.95;;;5.05;;
57029;SDS011;42920;45.306;20.448;2022-08-19T13:45:30;14.68;;;5.22;;
57029;SDS011;42920;45.306;20.448;2022-08-19T13:48:01;17.35;;;4.78;;
57029;SDS011;42920;45.306;20.448;2022-08-19T13:50:33;16.88;;;4.88;;
57029;SDS011;42920;45.306;20.448;2022-08-19T13:53:16;11.95;;;5.05;;
57029;SDS011;42920;45.306;20.448;2022-08-19T13:55:42;15.25;;;5.47;;
57029;SDS011;42920;45.306;20.448;2022-08-19T13:58:09;17.98;;;5.78;;
57029;SDS011;42920;45.306;20.448;2022-08-19T14:00:38;11.55;;;4.55;;
57029;SDS011;42920;45.306;20.448;2022-08-19T14:03:06;14.43;;;4.93;;
57029;SDS011;42920;45.306;20.448;2022-08-19T14:05:32;12.48;;;4.82;;
57029;SDS011;42920;45.306;20.448;2022-08-19T14:07:58;12.95;;;5.00;;
57029;SDS011;42920;45.306;20.448;2022-08-19T14:10:25;14.10;;;5.38;;
57029;SDS011;42920;45.306;20.448;2022-08-19T14:12:53;11.48;;;4.70;;
57029;SDS011;42920;45.306;20.448;2022-08-19T14:15:23;13.00;;;4.45;;
57029;SDS011;42920;45.306;20.448;2022-08-19T14:17:49;10.77;;;5.03;;
57029;SDS011;42920;45.306;20.448;2022-08-19T14:20:15;9.57;;;4.35;;
57029;SDS011;42920;45.306;20.448;2022-08-19T14:22:42;11.45;;;4.45;;
57029;SDS011;42920;45.306;20.448;2022-08-19T14:25:10;12.95;;;4.72;;
57029;SDS011;42920;45.306;20.448;2022-08-19T14:27:39;10.85;;;4.20;;
57029;SDS011;42920;45.306;20.448;2022-08-19T14:30:06;8.82;;;4.10;;
57029;SDS011;42920;45.306;20.448;2022-08-19T14:32:35;8.90;;;4.45;;
57029;SDS011;42920;45.306;20.448;2022-08-19T14:35:01;11.38;;;4.60;;
57029;SDS011;42920;45.306;20.448;2022-08-19T14:37:27;11.70;;;4.60;;
57029;SDS011;42920;45.306;20.448;2022-08-19T14:39:53;11.98;;;4.65;;